sensor_id;sensor_type;location;lat;lon;timestamp;P1;durP1;ratioP1;P2;durP2;ratioP2
38111;SDS011;64011;56.312;44.048;2023-02-28T00:01:18;22.75;;;8.68;;
38111;SDS011;64011;56.312;44.048;2023-02-28T00:03:18;23.70;;;9.48;;
38111;SDS011;64011;56.312;44.048;2023-02-28T00:05:20;20.67;;;6.20;;
38111;SDS011;64011;56.312;44.048;2023-02-28T00:07:22;21.63;;;7.90;;
38111;SDS011;64011;56.312;44.048;2023-02-28T00:09:23;21.27;;;7.70;;
38111;SDS011;64011;56.312;44.048;2023-02-28T00:11:24;16.98;;;6.43;;
38111;SDS011;64011;56.312;44.048;2023-02-28T00:13:25;16.17;;;5.65;;
38111;SDS011;64011;56.312;44.048;2023-02-28T00:15:26;19.25;;;6.43;;
38111;SDS011;64011;56.312;44.048;2023-02-28T00:17:27;20.80;;;7.38;;
38111;SDS011;64011;56.312;44.048;2023-02-28T00:19:28;16.05;;;4.93;;
38111;SDS011;64011;56.312;44.048;2023-02-28T00:21:29;13.27;;;3.88;;
38111;SDS011;64011;56.312;44.048;2023-02-28T00:23:31;15.63;;;5.53;;
38111;SDS011;64011;56.312;44.048;2023-02-28T00:25:32;17.88;;;6.05;;
38111;SDS011;64011;56.312;44.048;2023-02-28T00:27:33;19.30;;;6.93;;
38111;SDS011;64011;56.312;44.048;2023-02-28T00:29:34;18.08;;;6.38;;
38111;SDS011;64011;56.312;44.048;2023-02-28T00:31:34;15.05;;;5.18;;
38111;SDS011;64011;56.312;44.048;2023-02-28T00:33:35;13.70;;;4.35;;
38111;SDS011;64011;56.312;44.048;2023-02-28T00:35:36;15.57;;;5.82;;
38111;SDS011;64011;56.312;44.048;2023-02-28T00:37:37;17.38;;;5.57;;
38111;SDS011;64011;56.312;44.048;2023-02-28T00:39:39;16.60;;;5.38;;
38111;SDS011;64011;56.312;44.048;2023-02-28T00:41:40;17.13;;;6.03;;
38111;SDS011;64011;56.312;44.048;2023-02-28T00:43:41;18.65;;;6.80;;
38111;SDS011;64011;56.312;44.048;2023-02-28T00:45:42;18.00;;;5.60;;
38111;SDS011;64011;56.312;44.048;2023-02-28T00:47:43;12.38;;;4.22;;
38111;SDS011;64011;56.312;44.048;2023-02-28T00:49:44;18.17;;;5.70;;
38111;SDS011;64011;56.312;44.048;2023-02-28T00:51:45;15.65;;;4.95;;
38111;SDS011;64011;56.312;44.048;2023-02-28T00:53:46;16.27;;;5.03;;
38111;SDS011;64011;56.312;44.048;2023-02-28T00:55:48;14.68;;;4.68;;
38111;SDS011;64011;56.312;44.048;2023-02-28T00:57:49;14.93;;;4.53;;
38111;SDS011;64011;56.312;44.048;2023-02-28T00:59:50;13.15;;;3.75;;
38111;SDS011;64011;56.312;44.048;2023-02-28T01:01:50;15.93;;;5.15;;
38111;SDS011;64011;56.312;44.048;2023-02-28T01:03:51;15.32;;;4.63;;
38111;SDS011;64011;56.312;44.048;2023-02-28T01:05:52;13.85;;;4.90;;
38111;SDS011;64011;56.312;44.048;2023-02-28T01:07:53;13.85;;;3.45;;
38111;SDS011;64011;56.312;44.048;2023-02-28T01:09:53;13.07;;;3.85;;
38111;SDS011;64011;56.312;44.048;2023-02-28T01:11:56;16.67;;;5.32;;
38111;SDS011;64011;56.312;44.048;2023-02-28T01:13:56;19.50;;;6.95;;
38111;SDS011;64011;56.312;44.048;2023-02-28T01:15:57;18.35;;;7.50;;
38111;SDS011;64011;56.312;44.048;2023-02-28T01:17:58;22.30;;;8.95;;
38111;SDS011;64011;56.312;44.048;2023-02-28T01:19:59;19.65;;;8.00;;
38111;SDS011;64011;56.312;44.048;2023-02-28T01:22:00;19.58;;;7.35;;
38111;SDS011;64011;56.312;44.048;2023-02-28T01:24:02;20.60;;;6.68;;
38111;SDS011;64011;56.312;44.048;2023-02-28T01:26:04;17.55;;;5.95;;
38111;SDS011;64011;56.312;44.048;2023-02-28T01:28:06;17.98;;;5.97;;
38111;SDS011;64011;56.312;44.048;2023-02-28T01:30:08;21.73;;;7.65;;
38111;SDS011;64011;56.312;44.048;2023-02-28T01:32:09;21.17;;;7.50;;
38111;SDS011;64011;56.312;44.048;2023-02-28T01:34:10;20.38;;;7.15;;
38111;SDS011;64011;56.312;44.048;2023-02-28T01:36:11;15.50;;;4.55;;
38111;SDS011;64011;56.312;44.048;2023-02-28T01:38:13;20.15;;;7.03;;
38111;SDS011;64011;56.312;44.048;2023-02-28T01:40:14;17.98;;;6.97;;
38111;SDS011;64011;56.312;44.048;2023-02-28T01:42:14;17.35;;;6.38;;
38111;SDS011;64011;56.312;44.048;2023-02-28T01:46:54;17.33;;;6.20;;
38111;SDS011;64011;56.312;44.048;2023-02-28T01:48:57;15.95;;;5.72;;
38111;SDS011;64011;56.312;44.048;2023-02-28T01:51:03;14.65;;;4.50;;
38111;SDS011;64011;56.312;44.048;2023-02-28T01:53:06;14.77;;;5.05;;
38111;SDS011;64011;56.312;44.048;2023-02-28T01:55:09;15.85;;;5.63;;
38111;SDS011;64011;56.312;44.048;2023-02-28T01:57:11;17.23;;;6.35;;
38111;SDS011;64011;56.312;44.048;2023-02-28T01:59:18;14.75;;;4.53;;
38111;SDS011;64011;56.312;44.048;2023-02-28T02:01:21;17.58;;;5.80;;
38111;SDS011;64011;56.312;44.048;2023-02-28T02:03:24;21.33;;;6.80;;
38111;SDS011;64011;56.312;44.048;2023-02-28T02:05:26;17.48;;;6.22;;
38111;SDS011;64011;56.312;44.048;2023-02-28T02:07:29;13.30;;;4.45;;
38111;SDS011;64011;56.312;44.048;2023-02-28T02:09:31;15.40;;;5.13;;
38111;SDS011;64011;56.312;44.048;2023-02-28T02:11:31;14.35;;;4.05;;
38111;SDS011;64011;56.312;44.048;2023-02-28T02:13:44;17.75;;;5.38;;
38111;SDS011;64011;56.312;44.048;2023-02-28T02:16:04;15.18;;;4.05;;
38111;SDS011;64011;56.312;44.048;2023-02-28T02:18:13;14.45;;;4.45;;
38111;SDS011;64011;56.312;44.048;2023-02-28T02:20:38;13.63;;;4.60;;
38111;SDS011;64011;56.312;44.048;2023-02-28T02:23:02;13.43;;;4.65;;
38111;SDS011;64011;56.312;44.048;2023-02-28T02:25:12;17.52;;;4.68;;
38111;SDS011;64011;56.312;44.048;2023-02-28T02:27:29;14.48;;;4.80;;
38111;SDS011;64011;56.312;44.048;2023-02-28T02:32:18;14.32;;;3.95;;
38111;SDS011;64011;56.312;44.048;2023-02-28T02:34:53;13.15;;;4.03;;
38111;SDS011;64011;56.312;44.048;2023-02-28T02:37:03;12.95;;;3.88;;
38111;SDS011;64011;56.312;44.048;2023-02-28T02:39:10;11.98;;;4.28;;
38111;SDS011;64011;56.312;44.048;2023-02-28T02:41:16;13.55;;;4.50;;
38111;SDS011;64011;56.312;44.048;2023-02-28T02:43:19;16.40;;;5.30;;
38111;SDS011;64011;56.312;44.048;2023-02-28T02:45:25;16.63;;;5.30;;
38111;SDS011;64011;56.312;44.048;2023-02-28T02:47:27;15.38;;;4.30;;
38111;SDS011;64011;56.312;44.048;2023-02-28T02:49:31;13.10;;;4.53;;
38111;SDS011;64011;56.312;44.048;2023-02-28T02:51:34;15.35;;;3.88;;
38111;SDS011;64011;56.312;44.048;2023-02-28T02:53:37;14.45;;;3.75;;
38111;SDS011;64011;56.312;44.048;2023-02-28T02:55:41;14.65;;;3.97;;
38111;SDS011;64011;56.312;44.048;2023-02-28T02:57:45;17.08;;;4.80;;
38111;SDS011;64011;56.312;44.048;2023-02-28T02:59:47;15.70;;;4.35;;
38111;SDS011;64011;56.312;44.048;2023-02-28T03:01:50;16.48;;;4.63;;
38111;SDS011;64011;56.312;44.048;2023-02-28T03:03:54;13.43;;;4.40;;
38111;SDS011;64011;56.312;44.048;2023-02-28T03:05:56;14.90;;;4.63;;
38111;SDS011;64011;56.312;44.048;2023-02-28T03:07:59;6.15;;;2.03;;
38111;SDS011;64011;56.312;44.048;2023-02-28T03:12:28;14.45;;;4.28;;
38111;SDS011;64011;56.312;44.048;2023-02-28T03:14:39;13.32;;;4.43;;
38111;SDS011;64011;56.312;44.048;2023-02-28T03:16:49;12.07;;;3.40;;
38111;SDS011;64011;56.312;44.048;2023-02-28T03:19:08;8.10;;;2.67;;
38111;SDS011;64011;56.312;44.048;2023-02-28T03:21:19;17.55;;;5.30;;
38111;SDS011;64011;56.312;44.048;2023-02-28T03:23:26;16.45;;;4.80;;
38111;SDS011;64011;56.312;44.048;2023-02-28T03:25:34;13.60;;;3.60;;
38111;SDS011;64011;56.312;44.048;2023-02-28T03:27:39;12.73;;;3.80;;
38111;SDS011;64011;56.312;44.048;2023-02-28T03:29:42;12.00;;;3.15;;
38111;SDS011;64011;56.312;44.048;2023-02-28T03:31:46;11.02;;;3.40;;
38111;SDS011;64011;56.312;44.048;2023-02-28T03:33:50;11.10;;;3.75;;
38111;SDS011;64011;56.312;44.048;2023-02-28T03:35:59;15.75;;;4.15;;
38111;SDS011;64011;56.312;44.048;2023-02-28T03:38:03;13.98;;;4.35;;
38111;SDS011;64011;56.312;44.048;2023-02-28T03:40:09;12.52;;;3.20;;
38111;SDS011;64011;56.312;44.048;2023-02-28T03:42:14;11.32;;;3.67;;
38111;SDS011;64011;56.312;44.048;2023-02-28T03:44:16;13.75;;;4.38;;
38111;SDS011;64011;56.312;44.048;2023-02-28T03:46:22;13.88;;;4.38;;
38111;SDS011;64011;56.312;44.048;2023-02-28T03:48:26;8.02;;;2.95;;
38111;SDS011;64011;56.312;44.048;2023-02-28T03:50:32;14.32;;;4.53;;
38111;SDS011;64011;56.312;44.048;2023-02-28T03:52:37;13.20;;;3.83;;
38111;SDS011;64011;56.312;44.048;2023-02-28T03:54:44;12.70;;;4.22;;
38111;SDS011;64011;56.312;44.048;2023-02-28T03:56:49;13.77;;;4.10;;
38111;SDS011;64011;56.312;44.048;2023-02-28T03:58:53;16.65;;;5.35;;
38111;SDS011;64011;56.312;44.048;2023-02-28T04:00:57;17.17;;;5.03;;
38111;SDS011;64011;56.312;44.048;2023-02-28T04:03:01;12.10;;;3.75;;
38111;SDS011;64011;56.312;44.048;2023-02-28T04:05:02;16.17;;;4.15;;
38111;SDS011;64011;56.312;44.048;2023-02-28T04:07:04;13.20;;;3.72;;
38111;SDS011;64011;56.312;44.048;2023-02-28T04:09:07;11.88;;;4.35;;
38111;SDS011;64011;56.312;44.048;2023-02-28T04:11:18;15.13;;;4.45;;
38111;SDS011;64011;56.312;44.048;2023-02-28T04:13:22;11.38;;;3.75;;
38111;SDS011;64011;56.312;44.048;2023-02-28T04:15:23;17.20;;;4.65;;
38111;SDS011;64011;56.312;44.048;2023-02-28T04:17:23;15.27;;;4.05;;
38111;SDS011;64011;56.312;44.048;2023-02-28T04:19:24;17.05;;;4.75;;
38111;SDS011;64011;56.312;44.048;2023-02-28T04:21:25;15.25;;;4.13;;
38111;SDS011;64011;56.312;44.048;2023-02-28T04:23:26;15.40;;;4.68;;
38111;SDS011;64011;56.312;44.048;2023-02-28T04:25:26;11.40;;;2.67;;
38111;SDS011;64011;56.312;44.048;2023-02-28T04:27:27;13.70;;;4.53;;
38111;SDS011;64011;56.312;44.048;2023-02-28T04:29:30;12.68;;;3.88;;
38111;SDS011;64011;56.312;44.048;2023-02-28T04:31:31;13.70;;;4.05;;
38111;SDS011;64011;56.312;44.048;2023-02-28T04:33:32;20.23;;;4.82;;
38111;SDS011;64011;56.312;44.048;2023-02-28T04:35:33;10.95;;;3.13;;
38111;SDS011;64011;56.312;44.048;2023-02-28T04:37:34;13.82;;;4.00;;
38111;SDS011;64011;56.312;44.048;2023-02-28T04:39:35;10.38;;;2.83;;
38111;SDS011;64011;56.312;44.048;2023-02-28T04:41:36;12.10;;;3.55;;
38111;SDS011;64011;56.312;44.048;2023-02-28T04:43:36;14.27;;;4.28;;
38111;SDS011;64011;56.312;44.048;2023-02-28T04:45:39;10.13;;;3.03;;
38111;SDS011;64011;56.312;44.048;2023-02-28T04:47:39;14.73;;;4.25;;
38111;SDS011;64011;56.312;44.048;2023-02-28T04:49:40;11.27;;;3.30;;
38111;SDS011;64011;56.312;44.048;2023-02-28T04:51:41;14.93;;;4.20;;
38111;SDS011;64011;56.312;44.048;2023-02-28T04:53:42;12.15;;;3.95;;
38111;SDS011;64011;56.312;44.048;2023-02-28T04:55:43;9.50;;;2.90;;
38111;SDS011;64011;56.312;44.048;2023-02-28T04:57:44;10.48;;;2.80;;
38111;SDS011;64011;56.312;44.048;2023-02-28T04:59:45;11.27;;;3.42;;
38111;SDS011;64011;56.312;44.048;2023-02-28T05:01:47;13.07;;;3.08;;
38111;SDS011;64011;56.312;44.048;2023-02-28T05:03:49;11.75;;;3.03;;
38111;SDS011;64011;56.312;44.048;2023-02-28T05:05:50;10.50;;;3.67;;
38111;SDS011;64011;56.312;44.048;2023-02-28T05:07:50;13.85;;;3.60;;
38111;SDS011;64011;56.312;44.048;2023-02-28T05:09:51;13.25;;;3.90;;
38111;SDS011;64011;56.312;44.048;2023-02-28T05:11:52;12.63;;;4.70;;
38111;SDS011;64011;56.312;44.048;2023-02-28T05:13:53;8.63;;;2.53;;
38111;SDS011;64011;56.312;44.048;2023-02-28T05:15:53;9.18;;;3.03;;
38111;SDS011;64011;56.312;44.048;2023-02-28T05:17:56;10.13;;;2.75;;
38111;SDS011;64011;56.312;44.048;2023-02-28T05:19:56;11.48;;;3.22;;
38111;SDS011;64011;56.312;44.048;2023-02-28T05:21:57;12.30;;;3.13;;
38111;SDS011;64011;56.312;44.048;2023-02-28T05:23:58;10.02;;;2.90;;
38111;SDS011;64011;56.312;44.048;2023-02-28T05:26:01;11.23;;;3.40;;
38111;SDS011;64011;56.312;44.048;2023-02-28T05:28:01;8.05;;;3.05;;
38111;SDS011;64011;56.312;44.048;2023-02-28T05:30:02;9.95;;;3.08;;
38111;SDS011;64011;56.312;44.048;2023-02-28T05:32:05;10.70;;;3.03;;
38111;SDS011;64011;56.312;44.048;2023-02-28T05:34:07;11.40;;;3.75;;
38111;SDS011;64011;56.312;44.048;2023-02-28T05:36:08;12.05;;;3.30;;
38111;SDS011;64011;56.312;44.048;2023-02-28T05:38:09;10.55;;;3.17;;
38111;SDS011;64011;56.312;44.048;2023-02-28T05:40:10;13.77;;;3.65;;
38111;SDS011;64011;56.312;44.048;2023-02-28T05:42:11;14.70;;;3.67;;
38111;SDS011;64011;56.312;44.048;2023-02-28T05:44:12;14.55;;;4.75;;
38111;SDS011;64011;56.312;44.048;2023-02-28T05:46:13;13.82;;;3.85;;
38111;SDS011;64011;56.312;44.048;2023-02-28T05:48:14;11.20;;;3.72;;
38111;SDS011;64011;56.312;44.048;2023-02-28T05:50:16;11.85;;;3.28;;
38111;SDS011;64011;56.312;44.048;2023-02-28T05:52:17;12.18;;;3.97;;
38111;SDS011;64011;56.312;44.048;2023-02-28T05:54:18;13.98;;;4.25;;
38111;SDS011;64011;56.312;44.048;2023-02-28T05:56:19;8.50;;;2.88;;
38111;SDS011;64011;56.312;44.048;2023-02-28T05:58:19;13.60;;;3.83;;
38111;SDS011;64011;56.312;44.048;2023-02-28T06:00:20;10.82;;;3.05;;
38111;SDS011;64011;56.312;44.048;2023-02-28T06:02:21;10.20;;;3.10;;
38111;SDS011;64011;56.312;44.048;2023-02-28T06:04:22;11.65;;;3.58;;
38111;SDS011;64011;56.312;44.048;2023-02-28T06:06:24;9.65;;;2.78;;
38111;SDS011;64011;56.312;44.048;2023-02-28T06:08:25;9.77;;;3.10;;
38111;SDS011;64011;56.312;44.048;2023-02-28T06:10:26;7.55;;;2.83;;
38111;SDS011;64011;56.312;44.048;2023-02-28T06:12:26;10.68;;;2.72;;
38111;SDS011;64011;56.312;44.048;2023-02-28T06:14:27;12.75;;;4.03;;
38111;SDS011;64011;56.312;44.048;2023-02-28T06:16:29;13.00;;;3.90;;
38111;SDS011;64011;56.312;44.048;2023-02-28T06:18:30;11.70;;;3.95;;
38111;SDS011;64011;56.312;44.048;2023-02-28T06:20:31;14.18;;;3.40;;
38111;SDS011;64011;56.312;44.048;2023-02-28T06:22:34;13.80;;;4.43;;
38111;SDS011;64011;56.312;44.048;2023-02-28T06:24:35;12.75;;;4.75;;
38111;SDS011;64011;56.312;44.048;2023-02-28T06:26:36;14.63;;;4.32;;
38111;SDS011;64011;56.312;44.048;2023-02-28T06:28:36;11.70;;;4.00;;
38111;SDS011;64011;56.312;44.048;2023-02-28T06:30:37;14.10;;;4.32;;
38111;SDS011;64011;56.312;44.048;2023-02-28T06:32:38;11.57;;;3.10;;
38111;SDS011;64011;56.312;44.048;2023-02-28T06:34:39;9.05;;;3.13;;
38111;SDS011;64011;56.312;44.048;2023-02-28T06:36:40;12.15;;;3.78;;
38111;SDS011;64011;56.312;44.048;2023-02-28T06:38:43;12.18;;;3.95;;
38111;SDS011;64011;56.312;44.048;2023-02-28T06:40:44;12.68;;;3.78;;
38111;SDS011;64011;56.312;44.048;2023-02-28T06:42:45;10.95;;;4.07;;
38111;SDS011;64011;56.312;44.048;2023-02-28T06:44:45;15.00;;;4.70;;
38111;SDS011;64011;56.312;44.048;2023-02-28T06:46:46;12.13;;;3.70;;
38111;SDS011;64011;56.312;44.048;2023-02-28T06:48:47;11.32;;;4.10;;
38111;SDS011;64011;56.312;44.048;2023-02-28T06:50:48;14.32;;;4.80;;
38111;SDS011;64011;56.312;44.048;2023-02-28T06:52:49;13.43;;;4.43;;
38111;SDS011;64011;56.312;44.048;2023-02-28T06:54:51;15.82;;;5.40;;
38111;SDS011;64011;56.312;44.048;2023-02-28T06:56:52;11.82;;;4.18;;
38111;SDS011;64011;56.312;44.048;2023-02-28T06:58:53;14.80;;;4.75;;
38111;SDS011;64011;56.312;44.048;2023-02-28T07:00:53;14.43;;;4.93;;
38111;SDS011;64011;56.312;44.048;2023-02-28T07:02:54;15.00;;;5.10;;
38111;SDS011;64011;56.312;44.048;2023-02-28T07:04:55;12.18;;;3.95;;
38111;SDS011;64011;56.312;44.048;2023-02-28T07:06:55;14.63;;;4.80;;
38111;SDS011;64011;56.312;44.048;2023-02-28T07:08:56;12.35;;;4.20;;
38111;SDS011;64011;56.312;44.048;2023-02-28T07:10:58;13.13;;;4.30;;
38111;SDS011;64011;56.312;44.048;2023-02-28T07:12:59;13.82;;;4.15;;
38111;SDS011;64011;56.312;44.048;2023-02-28T07:15:00;14.75;;;4.63;;
38111;SDS011;64011;56.312;44.048;2023-02-28T07:17:02;13.55;;;4.22;;
38111;SDS011;64011;56.312;44.048;2023-02-28T07:19:03;10.32;;;3.58;;
38111;SDS011;64011;56.312;44.048;2023-02-28T07:21:04;9.98;;;3.63;;
38111;SDS011;64011;56.312;44.048;2023-02-28T07:23:06;14.40;;;5.03;;
38111;SDS011;64011;56.312;44.048;2023-02-28T07:25:07;13.43;;;4.60;;
38111;SDS011;64011;56.312;44.048;2023-02-28T07:27:10;16.30;;;5.38;;
38111;SDS011;64011;56.312;44.048;2023-02-28T07:29:11;9.23;;;3.63;;
38111;SDS011;64011;56.312;44.048;2023-02-28T07:31:12;10.43;;;4.45;;
38111;SDS011;64011;56.312;44.048;2023-02-28T07:33:13;14.75;;;4.55;;
38111;SDS011;64011;56.312;44.048;2023-02-28T07:35:14;15.23;;;5.10;;
38111;SDS011;64011;56.312;44.048;2023-02-28T07:37:15;14.50;;;5.35;;
38111;SDS011;64011;56.312;44.048;2023-02-28T07:39:15;14.32;;;5.05;;
38111;SDS011;64011;56.312;44.048;2023-02-28T07:41:17;14.38;;;5.07;;
38111;SDS011;64011;56.312;44.048;2023-02-28T07:43:19;16.33;;;4.35;;
38111;SDS011;64011;56.312;44.048;2023-02-28T07:45:20;14.55;;;5.20;;
38111;SDS011;64011;56.312;44.048;2023-02-28T07:47:21;13.10;;;5.05;;
38111;SDS011;64011;56.312;44.048;2023-02-28T07:49:22;16.35;;;5.80;;
38111;SDS011;64011;56.312;44.048;2023-02-28T07:51:23;13.48;;;4.35;;
38111;SDS011;64011;56.312;44.048;2023-02-28T07:53:23;12.18;;;4.00;;
38111;SDS011;64011;56.312;44.048;2023-02-28T07:55:24;13.95;;;4.07;;
38111;SDS011;64011;56.312;44.048;2023-02-28T07:57:25;12.00;;;4.25;;
38111;SDS011;64011;56.312;44.048;2023-02-28T07:59:27;13.57;;;4.25;;
38111;SDS011;64011;56.312;44.048;2023-02-28T08:01:28;12.07;;;4.07;;
38111;SDS011;64011;56.312;44.048;2023-02-28T08:03:29;12.68;;;3.95;;
38111;SDS011;64011;56.312;44.048;2023-02-28T08:05:29;15.27;;;4.47;;
38111;SDS011;64011;56.312;44.048;2023-02-28T08:07:30;12.27;;;3.50;;
38111;SDS011;64011;56.312;44.048;2023-02-28T08:09:31;11.02;;;3.97;;
38111;SDS011;64011;56.312;44.048;2023-02-28T08:11:32;12.52;;;4.07;;
38111;SDS011;64011;56.312;44.048;2023-02-28T08:13:33;11.98;;;3.80;;
38111;SDS011;64011;56.312;44.048;2023-02-28T08:15:35;11.65;;;3.42;;
38111;SDS011;64011;56.312;44.048;2023-02-28T08:17:36;10.05;;;3.58;;
38111;SDS011;64011;56.312;44.048;2023-02-28T08:19:36;13.43;;;4.75;;
38111;SDS011;64011;56.312;44.048;2023-02-28T08:21:37;12.50;;;4.05;;
38111;SDS011;64011;56.312;44.048;2023-02-28T08:23:38;10.73;;;3.67;;
38111;SDS011;64011;56.312;44.048;2023-02-28T08:25:39;8.13;;;2.25;;
38111;SDS011;64011;56.312;44.048;2023-02-28T08:27:39;11.05;;;3.45;;
38111;SDS011;64011;56.312;44.048;2023-02-28T08:29:40;11.18;;;3.72;;
38111;SDS011;64011;56.312;44.048;2023-02-28T08:31:42;11.50;;;3.42;;
38111;SDS011;64011;56.312;44.048;2023-02-28T08:33:43;9.40;;;3.22;;
38111;SDS011;64011;56.312;44.048;2023-02-28T08:35:44;10.65;;;3.60;;
38111;SDS011;64011;56.312;44.048;2023-02-28T08:37:47;12.45;;;3.90;;
38111;SDS011;64011;56.312;44.048;2023-02-28T08:39:47;11.35;;;3.47;;
38111;SDS011;64011;56.312;44.048;2023-02-28T08:41:48;13.27;;;4.70;;
38111;SDS011;64011;56.312;44.048;2023-02-28T08:43:50;11.15;;;3.88;;
38111;SDS011;64011;56.312;44.048;2023-02-28T08:45:51;10.20;;;3.40;;
38111;SDS011;64011;56.312;44.048;2023-02-28T08:47:54;8.32;;;2.95;;
38111;SDS011;64011;56.312;44.048;2023-02-28T08:49:55;8.43;;;3.03;;
38111;SDS011;64011;56.312;44.048;2023-02-28T08:51:56;11.50;;;3.83;;
38111;SDS011;64011;56.312;44.048;2023-02-28T08:53:57;7.72;;;2.97;;
38111;SDS011;64011;56.312;44.048;2023-02-28T08:55:59;14.35;;;4.55;;
38111;SDS011;64011;56.312;44.048;2023-02-28T08:58:02;12.40;;;3.97;;
38111;SDS011;64011;56.312;44.048;2023-02-28T09:00:03;9.20;;;3.33;;
38111;SDS011;64011;56.312;44.048;2023-02-28T09:02:05;9.80;;;3.15;;
38111;SDS011;64011;56.312;44.048;2023-02-28T09:04:08;14.48;;;4.10;;
38111;SDS011;64011;56.312;44.048;2023-02-28T09:06:09;9.18;;;3.20;;
38111;SDS011;64011;56.312;44.048;2023-02-28T09:08:10;13.20;;;4.45;;
38111;SDS011;64011;56.312;44.048;2023-02-28T09:10:11;12.00;;;3.90;;
38111;SDS011;64011;56.312;44.048;2023-02-28T09:12:13;8.98;;;3.25;;
38111;SDS011;64011;56.312;44.048;2023-02-28T09:14:14;13.32;;;3.72;;
38111;SDS011;64011;56.312;44.048;2023-02-28T09:16:15;13.85;;;4.50;;
38111;SDS011;64011;56.312;44.048;2023-02-28T09:18:17;13.13;;;4.13;;
38111;SDS011;64011;56.312;44.048;2023-02-28T09:20:19;11.07;;;3.78;;
38111;SDS011;64011;56.312;44.048;2023-02-28T09:22:19;13.05;;;4.85;;
38111;SDS011;64011;56.312;44.048;2023-02-28T09:24:20;13.68;;;4.78;;
38111;SDS011;64011;56.312;44.048;2023-02-28T09:26:22;14.68;;;4.72;;
38111;SDS011;64011;56.312;44.048;2023-02-28T09:28:23;15.20;;;3.95;;
38111;SDS011;64011;56.312;44.048;2023-02-28T09:30:24;21.00;;;4.68;;
38111;SDS011;64011;56.312;44.048;2023-02-28T09:32:25;11.50;;;3.38;;
38111;SDS011;64011;56.312;44.048;2023-02-28T09:34:25;15.48;;;4.85;;
38111;SDS011;64011;56.312;44.048;2023-02-28T09:36:27;16.48;;;5.78;;
38111;SDS011;64011;56.312;44.048;2023-02-28T09:38:28;14.85;;;4.88;;
38111;SDS011;64011;56.312;44.048;2023-02-28T09:40:29;15.38;;;5.20;;
38111;SDS011;64011;56.312;44.048;2023-02-28T09:42:31;14.52;;;5.25;;
38111;SDS011;64011;56.312;44.048;2023-02-28T09:44:35;17.00;;;5.47;;
38111;SDS011;64011;56.312;44.048;2023-02-28T09:46:56;10.30;;;3.40;;
38111;SDS011;64011;56.312;44.048;2023-02-28T09:48:58;14.25;;;4.05;;
38111;SDS011;64011;56.312;44.048;2023-02-28T09:51:02;14.00;;;4.68;;
38111;SDS011;64011;56.312;44.048;2023-02-28T09:53:10;12.68;;;4.60;;
38111;SDS011;64011;56.312;44.048;2023-02-28T09:55:18;13.82;;;4.43;;
38111;SDS011;64011;56.312;44.048;2023-02-28T09:57:31;14.15;;;4.70;;
38111;SDS011;64011;56.312;44.048;2023-02-28T09:59:44;14.27;;;5.05;;
38111;SDS011;64011;56.312;44.048;2023-02-28T10:01:50;14.73;;;4.97;;
38111;SDS011;64011;56.312;44.048;2023-02-28T10:03:55;14.60;;;5.45;;
38111;SDS011;64011;56.312;44.048;2023-02-28T10:05:58;12.60;;;4.03;;
38111;SDS011;64011;56.312;44.048;2023-02-28T10:08:09;13.63;;;4.57;;
38111;SDS011;64011;56.312;44.048;2023-02-28T10:10:16;15.73;;;5.72;;
38111;SDS011;64011;56.312;44.048;2023-02-28T10:12:20;13.90;;;4.63;;
38111;SDS011;64011;56.312;44.048;2023-02-28T10:14:22;12.27;;;4.43;;
38111;SDS011;64011;56.312;44.048;2023-02-28T10:16:25;15.52;;;5.32;;
38111;SDS011;64011;56.312;44.048;2023-02-28T10:18:30;17.67;;;5.95;;
38111;SDS011;64011;56.312;44.048;2023-02-28T10:20:38;17.38;;;6.60;;
38111;SDS011;64011;56.312;44.048;2023-02-28T10:22:43;11.10;;;4.03;;
38111;SDS011;64011;56.312;44.048;2023-02-28T10:24:51;12.90;;;5.05;;
38111;SDS011;64011;56.312;44.048;2023-02-28T10:26:53;17.50;;;6.15;;
38111;SDS011;64011;56.312;44.048;2023-02-28T10:28:57;13.30;;;4.78;;
38111;SDS011;64011;56.312;44.048;2023-02-28T10:30:57;14.45;;;4.45;;
38111;SDS011;64011;56.312;44.048;2023-02-28T10:32:59;12.55;;;4.38;;
38111;SDS011;64011;56.312;44.048;2023-02-28T10:35:00;15.23;;;5.25;;
38111;SDS011;64011;56.312;44.048;2023-02-28T10:37:06;16.30;;;5.50;;
38111;SDS011;64011;56.312;44.048;2023-02-28T10:41:37;15.02;;;5.40;;
38111;SDS011;64011;56.312;44.048;2023-02-28T10:43:43;15.85;;;4.63;;
38111;SDS011;64011;56.312;44.048;2023-02-28T10:45:51;14.85;;;5.05;;
38111;SDS011;64011;56.312;44.048;2023-02-28T10:47:56;16.75;;;6.13;;
38111;SDS011;64011;56.312;44.048;2023-02-28T10:49:58;18.15;;;6.85;;
38111;SDS011;64011;56.312;44.048;2023-02-28T10:51:59;18.60;;;6.55;;
38111;SDS011;64011;56.312;44.048;2023-02-28T10:54:00;17.13;;;6.13;;
38111;SDS011;64011;56.312;44.048;2023-02-28T10:56:02;15.18;;;5.90;;
38111;SDS011;64011;56.312;44.048;2023-02-28T10:58:12;16.38;;;5.15;;
38111;SDS011;64011;56.312;44.048;2023-02-28T11:00:23;18.98;;;7.15;;
38111;SDS011;64011;56.312;44.048;2023-02-28T11:02:32;12.13;;;3.70;;
38111;SDS011;64011;56.312;44.048;2023-02-28T11:04:35;19.27;;;6.40;;
38111;SDS011;64011;56.312;44.048;2023-02-28T11:06:38;17.05;;;5.85;;
38111;SDS011;64011;56.312;44.048;2023-02-28T11:08:43;15.35;;;4.97;;
38111;SDS011;64011;56.312;44.048;2023-02-28T11:10:52;15.63;;;5.72;;
38111;SDS011;64011;56.312;44.048;2023-02-28T11:12:55;18.95;;;5.70;;
38111;SDS011;64011;56.312;44.048;2023-02-28T11:14:58;11.60;;;4.05;;
38111;SDS011;64011;56.312;44.048;2023-02-28T11:17:11;19.48;;;6.55;;
38111;SDS011;64011;56.312;44.048;2023-02-28T11:19:16;17.65;;;5.90;;
38111;SDS011;64011;56.312;44.048;2023-02-28T11:21:20;12.07;;;4.20;;
38111;SDS011;64011;56.312;44.048;2023-02-28T11:23:22;16.88;;;5.30;;
38111;SDS011;64011;56.312;44.048;2023-02-28T11:25:26;18.85;;;6.80;;
38111;SDS011;64011;56.312;44.048;2023-02-28T11:27:46;16.00;;;5.70;;
38111;SDS011;64011;56.312;44.048;2023-02-28T11:29:48;17.27;;;5.35;;
38111;SDS011;64011;56.312;44.048;2023-02-28T11:34:26;14.43;;;4.72;;
38111;SDS011;64011;56.312;44.048;2023-02-28T11:36:28;19.40;;;6.85;;
38111;SDS011;64011;56.312;44.048;2023-02-28T11:38:30;18.23;;;6.57;;
38111;SDS011;64011;56.312;44.048;2023-02-28T11:40:36;11.80;;;4.10;;
38111;SDS011;64011;56.312;44.048;2023-02-28T11:42:43;17.92;;;6.32;;
38111;SDS011;64011;56.312;44.048;2023-02-28T11:44:53;18.90;;;6.10;;
38111;SDS011;64011;56.312;44.048;2023-02-28T11:47:01;14.68;;;4.97;;
38111;SDS011;64011;56.312;44.048;2023-02-28T11:49:12;10.13;;;3.47;;
38111;SDS011;64011;56.312;44.048;2023-02-28T11:51:19;15.40;;;4.95;;
38111;SDS011;64011;56.312;44.048;2023-02-28T11:53:23;15.90;;;5.32;;
38111;SDS011;64011;56.312;44.048;2023-02-28T11:55:36;16.08;;;5.50;;
38111;SDS011;64011;56.312;44.048;2023-02-28T11:57:45;15.98;;;5.72;;
38111;SDS011;64011;56.312;44.048;2023-02-28T11:59:55;17.75;;;6.13;;
38111;SDS011;64011;56.312;44.048;2023-02-28T12:02:24;15.02;;;5.05;;
38111;SDS011;64011;56.312;44.048;2023-02-28T12:04:29;16.10;;;5.25;;
38111;SDS011;64011;56.312;44.048;2023-02-28T12:06:53;12.98;;;4.47;;
38111;SDS011;64011;56.312;44.048;2023-02-28T12:09:00;14.15;;;5.07;;
38111;SDS011;64011;56.312;44.048;2023-02-28T12:11:06;15.63;;;5.38;;
38111;SDS011;64011;56.312;44.048;2023-02-28T12:13:15;16.40;;;5.07;;
38111;SDS011;64011;56.312;44.048;2023-02-28T12:15:24;12.52;;;4.32;;